sensor_id;sensor_type;location;lat;lon;timestamp;P1;durP1;ratioP1;P2;durP2;ratioP2
75320;SDS011;68337;52.196;5.660;2024-01-25T00:00:23;34.13;;;5.85;;
75320;SDS011;68337;52.196;5.660;2024-01-25T00:02:54;26.23;;;5.18;;
75320;SDS011;68337;52.196;5.660;2024-01-25T00:05:20;19.80;;;4.97;;
75320;SDS011;68337;52.196;5.660;2024-01-25T00:07:46;21.73;;;4.88;;
75320;SDS011;68337;52.196;5.660;2024-01-25T00:10:13;29.52;;;5.47;;
75320;SDS011;68337;52.196;5.660;2024-01-25T00:12:40;16.20;;;5.00;;
75320;SDS011;68337;52.196;5.660;2024-01-25T00:15:06;25.92;;;5.18;;
75320;SDS011;68337;52.196;5.660;2024-01-25T00:17:32;22.00;;;4.50;;
75320;SDS011;68337;52.196;5.660;2024-01-25T00:19:57;30.70;;;5.88;;
75320;SDS011;68337;52.196;5.660;2024-01-25T00:22:23;28.02;;;5.18;;
75320;SDS011;68337;52.196;5.660;2024-01-25T00:24:49;20.55;;;5.55;;
75320;SDS011;68337;52.196;5.660;2024-01-25T00:27:14;30.38;;;5.20;;
75320;SDS011;68337;52.196;5.660;2024-01-25T00:29:43;29.40;;;5.50;;
75320;SDS011;68337;52.196;5.660;2024-01-25T00:32:08;24.73;;;4.93;;
75320;SDS011;68337;52.196;5.660;2024-01-25T00:34:34;28.45;;;5.57;;
75320;SDS011;68337;52.196;5.660;2024-01-25T00:37:00;18.10;;;4.43;;
75320;SDS011;68337;52.196;5.660;2024-01-25T00:39:26;28.98;;;5.60;;
75320;SDS011;68337;52.196;5.660;2024-01-25T00:41:57;21.75;;;5.15;;
75320;SDS011;68337;52.196;5.660;2024-01-25T00:44:29;28.77;;;6.18;;
75320;SDS011;68337;52.196;5.660;2024-01-25T00:46:55;27.40;;;4.90;;
75320;SDS011;68337;52.196;5.660;2024-01-25T00:49:21;30.88;;;4.63;;
75320;SDS011;68337;52.196;5.660;2024-01-25T00:51:47;22.58;;;4.60;;
75320;SDS011;68337;52.196;5.660;2024-01-25T00:54:14;21.77;;;5.30;;
75320;SDS011;68337;52.196;5.660;2024-01-25T00:56:40;28.90;;;5.05;;
75320;SDS011;68337;52.196;5.660;2024-01-25T00:59:06;24.85;;;4.75;;
75320;SDS011;68337;52.196;5.660;2024-01-25T01:01:32;22.80;;;4.80;;
75320;SDS011;68337;52.196;5.660;2024-01-25T01:03:58;35.05;;;6.20;;
75320;SDS011;68337;52.196;5.660;2024-01-25T01:06:24;22.88;;;4.30;;
75320;SDS011;68337;52.196;5.660;2024-01-25T01:08:50;26.48;;;4.60;;
75320;SDS011;68337;52.196;5.660;2024-01-25T01:11:17;35.25;;;5.35;;
75320;SDS011;68337;52.196;5.660;2024-01-25T01:13:43;29.23;;;5.10;;
75320;SDS011;68337;52.196;5.660;2024-01-25T01:16:09;22.02;;;4.93;;
75320;SDS011;68337;52.196;5.660;2024-01-25T01:18:35;23.98;;;5.07;;
75320;SDS011;68337;52.196;5.660;2024-01-25T01:21:01;33.58;;;6.13;;
75320;SDS011;68337;52.196;5.660;2024-01-25T01:23:26;24.60;;;5.15;;
75320;SDS011;68337;52.196;5.660;2024-01-25T01:25:52;20.80;;;4.65;;
75320;SDS011;68337;52.196;5.660;2024-01-25T01:28:18;23.33;;;5.00;;
75320;SDS011;68337;52.196;5.660;2024-01-25T01:30:43;26.00;;;5.20;;
75320;SDS011;68337;52.196;5.660;2024-01-25T01:33:10;27.38;;;6.57;;
75320;SDS011;68337;52.196;5.660;2024-01-25T01:35:36;25.58;;;5.68;;
75320;SDS011;68337;52.196;5.660;2024-01-25T01:38:02;26.35;;;5.68;;
75320;SDS011;68337;52.196;5.660;2024-01-25T01:40:28;24.15;;;5.88;;
75320;SDS011;68337;52.196;5.660;2024-01-25T01:43:02;29.58;;;6.45;;
75320;SDS011;68337;52.196;5.660;2024-01-25T01:45:28;24.02;;;4.97;;
75320;SDS011;68337;52.196;5.660;2024-01-25T01:47:55;24.45;;;5.07;;
75320;SDS011;68337;52.196;5.660;2024-01-25T01:50:22;28.95;;;5.13;;
75320;SDS011;68337;52.196;5.660;2024-01-25T01:52:48;29.30;;;5.38;;
75320;SDS011;68337;52.196;5.660;2024-01-25T01:55:15;23.30;;;4.00;;
75320;SDS011;68337;52.196;5.660;2024-01-25T01:57:42;20.63;;;4.97;;
75320;SDS011;68337;52.196;5.660;2024-01-25T02:00:11;31.83;;;6.38;;
75320;SDS011;68337;52.196;5.660;2024-01-25T02:02:39;28.40;;;5.70;;
75320;SDS011;68337;52.196;5.660;2024-01-25T02:05:05;23.98;;;4.53;;
75320;SDS011;68337;52.196;5.660;2024-01-25T02:07:31;20.45;;;4.32;;
75320;SDS011;68337;52.196;5.660;2024-01-25T02:09:57;26.85;;;5.28;;
75320;SDS011;68337;52.196;5.660;2024-01-25T02:12:22;29.30;;;5.03;;
75320;SDS011;68337;52.196;5.660;2024-01-25T02:14:48;28.35;;;6.22;;
75320;SDS011;68337;52.196;5.660;2024-01-25T02:17:14;26.15;;;4.93;;
75320;SDS011;68337;52.196;5.660;2024-01-25T02:19:39;19.02;;;4.60;;
75320;SDS011;68337;52.196;5.660;2024-01-25T02:22:05;17.58;;;4.57;;
75320;SDS011;68337;52.196;5.660;2024-01-25T02:24:31;22.00;;;4.65;;
75320;SDS011;68337;52.196;5.660;2024-01-25T02:26:57;14.35;;;3.58;;
75320;SDS011;68337;52.196;5.660;2024-01-25T02:29:25;20.30;;;4.30;;
75320;SDS011;68337;52.196;5.660;2024-01-25T02:31:51;16.48;;;3.95;;
75320;SDS011;68337;52.196;5.660;2024-01-25T02:34:17;24.98;;;4.38;;
75320;SDS011;68337;52.196;5.660;2024-01-25T02:36:42;16.85;;;3.78;;
75320;SDS011;68337;52.196;5.660;2024-01-25T02:39:08;12.30;;;3.80;;
75320;SDS011;68337;52.196;5.660;2024-01-25T02:41:34;16.10;;;3.72;;
75320;SDS011;68337;52.196;5.660;2024-01-25T02:44:00;17.08;;;4.32;;
75320;SDS011;68337;52.196;5.660;2024-01-25T02:46:26;18.13;;;4.20;;
75320;SDS011;68337;52.196;5.660;2024-01-25T02:48:51;14.35;;;3.60;;
75320;SDS011;68337;52.196;5.660;2024-01-25T02:51:17;18.05;;;4.45;;
75320;SDS011;68337;52.196;5.660;2024-01-25T02:53:43;12.77;;;3.90;;
75320;SDS011;68337;52.196;5.660;2024-01-25T02:56:08;15.35;;;3.20;;
75320;SDS011;68337;52.196;5.660;2024-01-25T02:58:37;18.55;;;4.43;;
75320;SDS011;68337;52.196;5.660;2024-01-25T03:01:02;15.88;;;4.25;;
75320;SDS011;68337;52.196;5.660;2024-01-25T03:03:34;21.77;;;4.78;;
75320;SDS011;68337;52.196;5.660;2024-01-25T03:06:00;12.85;;;3.58;;
75320;SDS011;68337;52.196;5.660;2024-01-25T03:08:25;12.68;;;3.67;;
75320;SDS011;68337;52.196;5.660;2024-01-25T03:10:51;19.15;;;5.03;;
75320;SDS011;68337;52.196;5.660;2024-01-25T03:13:17;14.13;;;3.55;;
75320;SDS011;68337;52.196;5.660;2024-01-25T03:15:43;18.23;;;3.53;;
75320;SDS011;68337;52.196;5.660;2024-01-25T03:18:09;20.77;;;3.67;;
75320;SDS011;68337;52.196;5.660;2024-01-25T03:20:35;14.02;;;3.03;;
75320;SDS011;68337;52.196;5.660;2024-01-25T03:23:01;18.25;;;3.83;;
75320;SDS011;68337;52.196;5.660;2024-01-25T03:25:27;11.35;;;3.22;;
75320;SDS011;68337;52.196;5.660;2024-01-25T03:27:53;14.30;;;4.65;;
75320;SDS011;68337;52.196;5.660;2024-01-25T03:30:19;11.75;;;3.38;;
75320;SDS011;68337;52.196;5.660;2024-01-25T03:32:45;14.82;;;3.42;;
75320;SDS011;68337;52.196;5.660;2024-01-25T03:35:11;17.15;;;3.50;;
75320;SDS011;68337;52.196;5.660;2024-01-25T03:37:37;16.10;;;3.78;;
75320;SDS011;68337;52.196;5.660;2024-01-25T03:40:03;14.63;;;4.20;;
75320;SDS011;68337;52.196;5.660;2024-01-25T03:42:29;14.88;;;4.38;;
75320;SDS011;68337;52.196;5.660;2024-01-25T03:44:55;19.70;;;3.70;;
75320;SDS011;68337;52.196;5.660;2024-01-25T03:47:21;13.70;;;3.58;;
75320;SDS011;68337;52.196;5.660;2024-01-25T03:49:47;12.38;;;4.05;;
75320;SDS011;68337;52.196;5.660;2024-01-25T03:52:13;12.13;;;3.40;;
75320;SDS011;68337;52.196;5.660;2024-01-25T03:54:38;16.23;;;4.55;;
75320;SDS011;68337;52.196;5.660;2024-01-25T03:57:04;15.43;;;3.30;;
75320;SDS011;68337;52.196;5.660;2024-01-25T03:59:33;14.75;;;3.80;;
75320;SDS011;68337;52.196;5.660;2024-01-25T04:01:59;11.90;;;3.05;;
75320;SDS011;68337;52.196;5.660;2024-01-25T04:04:24;16.85;;;3.78;;
75320;SDS011;68337;52.196;5.660;2024-01-25T04:06:50;15.10;;;3.83;;
75320;SDS011;68337;52.196;5.660;2024-01-25T04:09:16;16.05;;;3.67;;
75320;SDS011;68337;52.196;5.660;2024-01-25T04:11:41;13.43;;;3.08;;
75320;SDS011;68337;52.196;5.660;2024-01-25T04:14:07;15.38;;;4.25;;
75320;SDS011;68337;52.196;5.660;2024-01-25T04:16:33;12.30;;;3.28;;
75320;SDS011;68337;52.196;5.660;2024-01-25T04:18:59;9.25;;;3.17;;
75320;SDS011;68337;52.196;5.660;2024-01-25T04:21:24;15.23;;;3.85;;
75320;SDS011;68337;52.196;5.660;2024-01-25T04:23:51;8.50;;;2.90;;
75320;SDS011;68337;52.196;5.660;2024-01-25T04:26:17;15.18;;;3.78;;
75320;SDS011;68337;52.196;5.660;2024-01-25T04:28:42;9.73;;;2.83;;
75320;SDS011;68337;52.196;5.660;2024-01-25T04:31:08;10.25;;;3.67;;
75320;SDS011;68337;52.196;5.660;2024-01-25T04:33:34;16.52;;;3.83;;
75320;SDS011;68337;52.196;5.660;2024-01-25T04:35:59;12.73;;;3.42;;
75320;SDS011;68337;52.196;5.660;2024-01-25T04:38:25;10.63;;;3.13;;
75320;SDS011;68337;52.196;5.660;2024-01-25T04:40:51;13.25;;;3.72;;
75320;SDS011;68337;52.196;5.660;2024-01-25T04:43:16;18.08;;;4.10;;
75320;SDS011;68337;52.196;5.660;2024-01-25T04:45:42;15.60;;;3.70;;
75320;SDS011;68337;52.196;5.660;2024-01-25T04:48:08;20.23;;;3.83;;
75320;SDS011;68337;52.196;5.660;2024-01-25T04:50:34;15.98;;;4.75;;
75320;SDS011;68337;52.196;5.660;2024-01-25T04:53:01;20.52;;;3.42;;
75320;SDS011;68337;52.196;5.660;2024-01-25T04:55:27;16.38;;;3.90;;
75320;SDS011;68337;52.196;5.660;2024-01-25T04:57:53;10.23;;;2.80;;
75320;SDS011;68337;52.196;5.660;2024-01-25T05:00:20;15.30;;;3.13;;
75320;SDS011;68337;52.196;5.660;2024-01-25T05:02:47;16.85;;;3.92;;
75320;SDS011;68337;52.196;5.660;2024-01-25T05:05:12;20.52;;;4.00;;
75320;SDS011;68337;52.196;5.660;2024-01-25T05:07:38;18.80;;;4.03;;
75320;SDS011;68337;52.196;5.660;2024-01-25T05:10:07;13.23;;;3.22;;
75320;SDS011;68337;52.196;5.660;2024-01-25T05:12:33;15.73;;;3.78;;
75320;SDS011;68337;52.196;5.660;2024-01-25T05:14:59;15.15;;;4.30;;
75320;SDS011;68337;52.196;5.660;2024-01-25T05:17:25;15.63;;;3.58;;
75320;SDS011;68337;52.196;5.660;2024-01-25T05:19:50;14.80;;;3.33;;
75320;SDS011;68337;52.196;5.660;2024-01-25T05:22:16;19.10;;;4.78;;
75320;SDS011;68337;52.196;5.660;2024-01-25T05:24:42;12.80;;;2.88;;
75320;SDS011;68337;52.196;5.660;2024-01-25T05:27:08;15.13;;;3.55;;
75320;SDS011;68337;52.196;5.660;2024-01-25T05:29:33;22.38;;;3.63;;
75320;SDS011;68337;52.196;5.660;2024-01-25T05:31:59;15.43;;;3.50;;
75320;SDS011;68337;52.196;5.660;2024-01-25T05:34:25;19.88;;;3.42;;
75320;SDS011;68337;52.196;5.660;2024-01-25T05:36:53;15.60;;;3.55;;
75320;SDS011;68337;52.196;5.660;2024-01-25T05:39:19;19.30;;;3.58;;
75320;SDS011;68337;52.196;5.660;2024-01-25T05:41:45;9.73;;;3.47;;
75320;SDS011;68337;52.196;5.660;2024-01-25T05:44:12;17.38;;;4.07;;
75320;SDS011;68337;52.196;5.660;2024-01-25T05:46:38;18.63;;;3.33;;
75320;SDS011;68337;52.196;5.660;2024-01-25T05:49:03;12.25;;;2.90;;
75320;SDS011;68337;52.196;5.660;2024-01-25T05:51:29;12.75;;;3.22;;
75320;SDS011;68337;52.196;5.660;2024-01-25T05:53:55;16.58;;;4.22;;
75320;SDS011;68337;52.196;5.660;2024-01-25T05:56:21;12.18;;;3.10;;
75320;SDS011;68337;52.196;5.660;2024-01-25T05:58:46;18.77;;;4.07;;
75320;SDS011;68337;52.196;5.660;2024-01-25T06:01:12;15.85;;;3.60;;
75320;SDS011;68337;52.196;5.660;2024-01-25T06:03:38;21.63;;;4.80;;
75320;SDS011;68337;52.196;5.660;2024-01-25T06:06:04;17.55;;;4.72;;
75320;SDS011;68337;52.196;5.660;2024-01-25T06:08:29;13.02;;;4.03;;
75320;SDS011;68337;52.196;5.660;2024-01-25T06:10:55;13.73;;;3.28;;
75320;SDS011;68337;52.196;5.660;2024-01-25T06:13:23;16.23;;;3.80;;
75320;SDS011;68337;52.196;5.660;2024-01-25T06:15:49;15.18;;;3.67;;
75320;SDS011;68337;52.196;5.660;2024-01-25T06:18:15;17.52;;;4.15;;
75320;SDS011;68337;52.196;5.660;2024-01-25T06:20:40;10.93;;;3.50;;
75320;SDS011;68337;52.196;5.660;2024-01-25T06:23:06;11.90;;;3.58;;
75320;SDS011;68337;52.196;5.660;2024-01-25T06:25:32;17.00;;;3.38;;
75320;SDS011;68337;52.196;5.660;2024-01-25T06:27:59;14.15;;;4.50;;
75320;SDS011;68337;52.196;5.660;2024-01-25T06:30:25;12.70;;;3.50;;
75320;SDS011;68337;52.196;5.660;2024-01-25T06:32:51;18.40;;;3.75;;
75320;SDS011;68337;52.196;5.660;2024-01-25T06:35:16;21.92;;;4.32;;
75320;SDS011;68337;52.196;5.660;2024-01-25T06:37:45;12.77;;;4.07;;
75320;SDS011;68337;52.196;5.660;2024-01-25T06:40:11;13.48;;;4.15;;
75320;SDS011;68337;52.196;5.660;2024-01-25T06:42:36;16.40;;;4.60;;
75320;SDS011;68337;52.196;5.660;2024-01-25T06:45:02;20.35;;;3.88;;
75320;SDS011;68337;52.196;5.660;2024-01-25T06:47:28;21.02;;;3.72;;
75320;SDS011;68337;52.196;5.660;2024-01-25T06:49:54;16.95;;;3.40;;
75320;SDS011;68337;52.196;5.660;2024-01-25T06:52:20;15.27;;;3.53;;
75320;SDS011;68337;52.196;5.660;2024-01-25T06:54:45;15.07;;;3.35;;
75320;SDS011;68337;52.196;5.660;2024-01-25T06:57:11;15.43;;;3.70;;
75320;SDS011;68337;52.196;5.660;2024-01-25T06:59:39;19.58;;;4.45;;
75320;SDS011;68337;52.196;5.660;2024-01-25T07:02:04;17.17;;;4.20;;
75320;SDS011;68337;52.196;5.660;2024-01-25T07:04:31;17.83;;;3.95;;
75320;SDS011;68337;52.196;5.660;2024-01-25T07:06:58;17.85;;;3.70;;
75320;SDS011;68337;52.196;5.660;2024-01-25T07:09:25;19.20;;;4.50;;
75320;SDS011;68337;52.196;5.660;2024-01-25T07:11:51;17.20;;;4.40;;
75320;SDS011;68337;52.196;5.660;2024-01-25T07:14:16;14.98;;;4.30;;
75320;SDS011;68337;52.196;5.660;2024-01-25T07:16:42;25.13;;;4.80;;
75320;SDS011;68337;52.196;5.660;2024-01-25T07:19:07;19.52;;;3.97;;
75320;SDS011;68337;52.196;5.660;2024-01-25T07:21:33;14.15;;;3.90;;
75320;SDS011;68337;52.196;5.660;2024-01-25T07:24:03;11.70;;;3.10;;
75320;SDS011;68337;52.196;5.660;2024-01-25T07:26:29;25.50;;;6.00;;
75320;SDS011;68337;52.196;5.660;2024-01-25T07:28:55;14.63;;;4.07;;
75320;SDS011;68337;52.196;5.660;2024-01-25T07:31:24;23.83;;;5.43;;
75320;SDS011;68337;52.196;5.660;2024-01-25T07:33:51;23.83;;;4.70;;
75320;SDS011;68337;52.196;5.660;2024-01-25T07:36:17;20.85;;;4.75;;
75320;SDS011;68337;52.196;5.660;2024-01-25T07:38:43;19.35;;;4.47;;
75320;SDS011;68337;52.196;5.660;2024-01-25T07:41:11;20.27;;;4.30;;
75320;SDS011;68337;52.196;5.660;2024-01-25T07:43:38;22.92;;;4.82;;
75320;SDS011;68337;52.196;5.660;2024-01-25T07:46:04;23.58;;;5.68;;
75320;SDS011;68337;52.196;5.660;2024-01-25T07:48:30;24.20;;;5.05;;
75320;SDS011;68337;52.196;5.660;2024-01-25T07:50:56;27.65;;;5.57;;
75320;SDS011;68337;52.196;5.660;2024-01-25T07:53:22;26.63;;;5.82;;
75320;SDS011;68337;52.196;5.660;2024-01-25T07:55:48;21.70;;;6.47;;
75320;SDS011;68337;52.196;5.660;2024-01-25T07:58:14;23.55;;;6.35;;
75320;SDS011;68337;52.196;5.660;2024-01-25T08:00:40;16.67;;;6.03;;
75320;SDS011;68337;52.196;5.660;2024-01-25T08:03:10;18.25;;;5.65;;
75320;SDS011;68337;52.196;5.660;2024-01-25T08:05:36;17.40;;;5.43;;
75320;SDS011;68337;52.196;5.660;2024-01-25T08:08:02;18.17;;;5.30;;
75320;SDS011;68337;52.196;5.660;2024-01-25T08:10:28;15.18;;;5.03;;
75320;SDS011;68337;52.196;5.660;2024-01-25T08:12:56;20.75;;;5.75;;
75320;SDS011;68337;52.196;5.660;2024-01-25T08:15:24;20.63;;;5.70;;
75320;SDS011;68337;52.196;5.660;2024-01-25T08:17:49;24.67;;;5.88;;
75320;SDS011;68337;52.196;5.660;2024-01-25T08:20:15;18.52;;;6.93;;
75320;SDS011;68337;52.196;5.660;2024-01-25T08:22:41;20.67;;;5.88;;
75320;SDS011;68337;52.196;5.660;2024-01-25T08:25:07;15.65;;;4.57;;
75320;SDS011;68337;52.196;5.660;2024-01-25T08:27:33;13.75;;;4.32;;
75320;SDS011;68337;52.196;5.660;2024-01-25T08:29:59;22.52;;;4.75;;
75320;SDS011;68337;52.196;5.660;2024-01-25T08:32:24;15.25;;;4.50;;
75320;SDS011;68337;52.196;5.660;2024-01-25T08:34:50;17.23;;;5.75;;
75320;SDS011;68337;52.196;5.660;2024-01-25T08:37:16;20.95;;;4.57;;
75320;SDS011;68337;52.196;5.660;2024-01-25T08:39:41;14.63;;;4.18;;
75320;SDS011;68337;52.196;5.660;2024-01-25T08:42:08;22.38;;;5.18;;
75320;SDS011;68337;52.196;5.660;2024-01-25T08:44:34;24.20;;;7.22;;
75320;SDS011;68337;52.196;5.660;2024-01-25T08:46:59;19.75;;;5.15;;
75320;SDS011;68337;52.196;5.660;2024-01-25T08:49:25;19.40;;;5.18;;
75320;SDS011;68337;52.196;5.660;2024-01-25T08:51:51;27.13;;;6.65;;
75320;SDS011;68337;52.196;5.660;2024-01-25T08:54:16;24.88;;;6.78;;
75320;SDS011;68337;52.196;5.660;2024-01-25T08:56:42;34.53;;;11.45;;
75320;SDS011;68337;52.196;5.660;2024-01-25T08:59:08;49.83;;;15.43;;
75320;SDS011;68337;52.196;5.660;2024-01-25T09:01:33;50.00;;;17.23;;
75320;SDS011;68337;52.196;5.660;2024-01-25T09:03:59;49.75;;;14.80;;
75320;SDS011;68337;52.196;5.660;2024-01-25T09:06:28;35.92;;;12.27;;
75320;SDS011;68337;52.196;5.660;2024-01-25T09:08:55;35.78;;;11.68;;
75320;SDS011;68337;52.196;5.660;2024-01-25T09:11:21;29.70;;;9.38;;
75320;SDS011;68337;52.196;5.660;2024-01-25T09:13:46;33.55;;;10.23;;
75320;SDS011;68337;52.196;5.660;2024-01-25T09:16:13;32.65;;;10.18;;
75320;SDS011;68337;52.196;5.660;2024-01-25T09:18:39;32.30;;;9.40;;
75320;SDS011;68337;52.196;5.660;2024-01-25T09:21:04;21.13;;;8.38;;
75320;SDS011;68337;52.196;5.660;2024-01-25T09:23:30;28.88;;;9.65;;
75320;SDS011;68337;52.196;5.660;2024-01-25T09:25:55;26.27;;;8.77;;
75320;SDS011;68337;52.196;5.660;2024-01-25T09:28:21;26.88;;;9.35;;
75320;SDS011;68337;52.196;5.660;2024-01-25T09:30:47;29.48;;;10.27;;
75320;SDS011;68337;52.196;5.660;2024-01-25T09:33:13;33.97;;;11.15;;
75320;SDS011;68337;52.196;5.660;2024-01-25T09:35:39;34.70;;;11.05;;
75320;SDS011;68337;52.196;5.660;2024-01-25T09:38:05;35.58;;;10.27;;
75320;SDS011;68337;52.196;5.660;2024-01-25T09:40:31;39.05;;;11.57;;
75320;SDS011;68337;52.196;5.660;2024-01-25T09:42:58;35.72;;;9.95;;
75320;SDS011;68337;52.196;5.660;2024-01-25T09:45:24;37.63;;;9.18;;
75320;SDS011;68337;52.196;5.660;2024-01-25T09:47:50;35.53;;;9.05;;
75320;SDS011;68337;52.196;5.660;2024-01-25T09:50:16;35.97;;;9.63;;
75320;SDS011;68337;52.196;5.660;2024-01-25T09:52:43;43.97;;;9.45;;
75320;SDS011;68337;52.196;5.660;2024-01-25T09:55:11;39.70;;;9.13;;
75320;SDS011;68337;52.196;5.660;2024-01-25T09:57:39;36.20;;;8.80;;
75320;SDS011;68337;52.196;5.660;2024-01-25T10:00:08;27.92;;;8.20;;
75320;SDS011;68337;52.196;5.660;2024-01-25T10:02:37;35.05;;;8.70;;
75320;SDS011;68337;52.196;5.660;2024-01-25T10:05:03;30.02;;;8.52;;
75320;SDS011;68337;52.196;5.660;2024-01-25T10:10:04;37.38;;;8.30;;
75320;SDS011;68337;52.196;5.660;2024-01-25T10:12:31;39.70;;;7.50;;
75320;SDS011;68337;52.196;5.660;2024-01-25T10:14:57;37.55;;;8.80;;
75320;SDS011;68337;52.196;5.660;2024-01-25T10:17:23;41.97;;;8.88;;
75320;SDS011;68337;52.196;5.660;2024-01-25T10:19:49;35.05;;;7.60;;
75320;SDS011;68337;52.196;5.660;2024-01-25T10:22:14;37.05;;;8.57;;
75320;SDS011;68337;52.196;5.660;2024-01-25T10:24:40;47.47;;;8.75;;
75320;SDS011;68337;52.196;5.660;2024-01-25T10:27:06;32.42;;;8.57;;
75320;SDS011;68337;52.196;5.660;2024-01-25T10:29:34;29.58;;;8.35;;
75320;SDS011;68337;52.196;5.660;2024-01-25T10:32:00;38.15;;;9.98;;
75320;SDS011;68337;52.196;5.660;2024-01-25T10:34:27;34.70;;;8.95;;
75320;SDS011;68337;52.196;5.660;2024-01-25T10:36:53;38.33;;;8.52;;
75320;SDS011;68337;52.196;5.660;2024-01-25T10:39:21;39.00;;;8.45;;
75320;SDS011;68337;52.196;5.660;2024-01-25T10:41:47;31.50;;;8.85;;
75320;SDS011;68337;52.196;5.660;2024-01-25T10:44:16;31.77;;;9.80;;
75320;SDS011;68337;52.196;5.660;2024-01-25T10:46:44;27.55;;;8.75;;
75320;SDS011;68337;52.196;5.660;2024-01-25T10:49:12;52.72;;;9.73;;
75320;SDS011;68337;52.196;5.660;2024-01-25T10:51:41;27.98;;;7.90;;
75320;SDS011;68337;52.196;5.660;2024-01-25T10:54:07;34.75;;;8.07;;
75320;SDS011;68337;52.196;5.660;2024-01-25T10:56:34;38.33;;;8.32;;
75320;SDS011;68337;52.196;5.660;2024-01-25T10:59:01;30.63;;;7.93;;
75320;SDS011;68337;52.196;5.660;2024-01-25T11:01:27;39.92;;;8.65;;
75320;SDS011;68337;52.196;5.660;2024-01-25T11:03:52;35.30;;;8.40;;
75320;SDS011;68337;52.196;5.660;2024-01-25T11:06:20;46.30;;;9.45;;
75320;SDS011;68337;52.196;5.660;2024-01-25T11:08:48;27.63;;;7.68;;
75320;SDS011;68337;52.196;5.660;2024-01-25T11:11:14;29.63;;;8.32;;
75320;SDS011;68337;52.196;5.660;2024-01-25T11:13:42;32.08;;;7.72;;
75320;SDS011;68337;52.196;5.660;2024-01-25T11:16:15;33.85;;;7.95;;
75320;SDS011;68337;52.196;5.660;2024-01-25T11:18:49;40.22;;;8.88;;
75320;SDS011;68337;52.196;5.660;2024-01-25T11:21:22;37.45;;;8.27;;
75320;SDS011;68337;52.196;5.660;2024-01-25T11:24:00;34.50;;;8.65;;
75320;SDS011;68337;52.196;5.660;2024-01-25T11:29:42;33.47;;;8.55;;
75320;SDS011;68337;52.196;5.660;2024-01-25T11:32:08;41.70;;;8.23;;
75320;SDS011;68337;52.196;5.660;2024-01-25T11:34:34;39.65;;;8.57;;
75320;SDS011;68337;52.196;5.660;2024-01-25T11:37:01;30.85;;;9.02;;
75320;SDS011;68337;52.196;5.660;2024-01-25T11:39:26;33.45;;;8.02;;
75320;SDS011;68337;52.196;5.660;2024-01-25T11:41:53;34.83;;;7.53;;
75320;SDS011;68337;52.196;5.660;2024-01-25T11:44:19;31.63;;;7.22;;
75320;SDS011;68337;52.196;5.660;2024-01-25T11:46:48;38.20;;;7.88;;
75320;SDS011;68337;52.196;5.660;2024-01-25T11:49:16;33.60;;;7.15;;
75320;SDS011;68337;52.196;5.660;2024-01-25T11:51:42;30.20;;;9.25;;
75320;SDS011;68337;52.196;5.660;2024-01-25T11:54:08;42.67;;;8.52;;
75320;SDS011;68337;52.196;5.660;2024-01-25T11:56:37;39.67;;;8.48;;
75320;SDS011;68337;52.196;5.660;2024-01-25T11:59:07;28.00;;;7.82;;
75320;SDS011;68337;52.196;5.660;2024-01-25T12:01:33;28.85;;;8.32;;
75320;SDS011;68337;52.196;5.660;2024-01-25T12:03:59;34.58;;;7.15;;
75320;SDS011;68337;52.196;5.660;2024-01-25T12:06:26;34.83;;;8.48;;
75320;SDS011;68337;52.196;5.660;2024-01-25T12:08:52;30.48;;;7.45;;
75320;SDS011;68337;52.196;5.660;2024-01-25T12:11:17;27.90;;;7.22;;
75320;SDS011;68337;52.196;5.660;2024-01-25T12:13:44;31.00;;;6.93;;
75320;SDS011;68337;52.196;5.660;2024-01-25T12:16:10;27.55;;;7.57;;
75320;SDS011;68337;52.196;5.660;2024-01-25T12:18:37;41.78;;;7.95;;
75320;SDS011;68337;52.196;5.660;2024-01-25T12:21:05;32.63;;;8.40;;
75320;SDS011;68337;52.196;5.660;2024-01-25T12:23:35;29.70;;;7.70;;
75320;SDS011;68337;52.196;5.660;2024-01-25T12:26:03;40.70;;;8.98;;
75320;SDS011;68337;52.196;5.660;2024-01-25T12:28:30;40.33;;;9.32;;
75320;SDS011;68337;52.196;5.660;2024-01-25T12:30:57;31.27;;;7.78;;
75320;SDS011;68337;52.196;5.660;2024-01-25T12:33:24;27.73;;;7.00;;
75320;SDS011;68337;52.196;5.660;2024-01-25T12:35:50;39.05;;;8.95;;
75320;SDS011;68337;52.196;5.660;2024-01-25T12:38:16;31.50;;;6.78;;
75320;SDS011;68337;52.196;5.660;2024-01-25T12:40:43;29.45;;;7.90;;
75320;SDS011;68337;52.196;5.660;2024-01-25T12:43:09;30.90;;;7.53;;
75320;SDS011;68337;52.196;5.660;2024-01-25T12:45:35;36.90;;;7.68;;
75320;SDS011;68337;52.196;5.660;2024-01-25T12:48:01;32.30;;;8.07;;
75320;SDS011;68337;52.196;5.660;2024-01-25T12:50:28;31.05;;;7.70;;
75320;SDS011;68337;52.196;5.660;2024-01-25T12:52:53;34.90;;;7.05;;
75320;SDS011;68337;52.196;5.660;2024-01-25T12:55:19;29.80;;;7.90;;
75320;SDS011;68337;52.196;5.660;2024-01-25T12:57:45;35.35;;;8.27;;
75320;SDS011;68337;52.196;5.660;2024-01-25T13:00:11;35.70;;;9.13;;
75320;SDS011;68337;52.196;5.660;2024-01-25T13:02:37;29.23;;;7.50;;
75320;SDS011;68337;52.196;5.660;2024-01-25T13:05:02;31.85;;;7.78;;
75320;SDS011;68337;52.196;5.660;2024-01-25T13:07:28;34.22;;;8.10;;
75320;SDS011;68337;52.196;5.660;2024-01-25T13:09:54;32.35;;;8.13;;
75320;SDS011;68337;52.196;5.660;2024-01-25T13:12:20;34.05;;;8.68;;
75320;SDS011;68337;52.196;5.660;2024-01-25T13:14:45;29.15;;;7.18;;
75320;SDS011;68337;52.196;5.660;2024-01-25T13:17:11;31.13;;;8.07;;
75320;SDS011;68337;52.196;5.660;2024-01-25T13:19:37;40.22;;;8.77;;
75320;SDS011;68337;52.196;5.660;2024-01-25T13:22:02;32.65;;;7.88;;
75320;SDS011;68337;52.196;5.660;2024-01-25T13:24:28;32.88;;;7.68;;
75320;SDS011;68337;52.196;5.660;2024-01-25T13:26:54;33.65;;;7.85;;
75320;SDS011;68337;52.196;5.660;2024-01-25T13:29:20;42.67;;;8.07;;
75320;SDS011;68337;52.196;5.660;2024-01-25T13:31:45;40.05;;;9.10;;
75320;SDS011;68337;52.196;5.660;2024-01-25T13:34:12;43.47;;;8.93;;
75320;SDS011;68337;52.196;5.660;2024-01-25T13:36:38;29.75;;;9.43;;
75320;SDS011;68337;52.196;5.660;2024-01-25T13:39:04;36.70;;;9.05;;
75320;SDS011;68337;52.196;5.660;2024-01-25T13:41:30;31.15;;;8.25;;
75320;SDS011;68337;52.196;5.660;2024-01-25T13:43:56;34.28;;;8.88;;
75320;SDS011;68337;52.196;5.660;2024-01-25T13:46:21;37.53;;;9.98;;
75320;SDS011;68337;52.196;5.660;2024-01-25T13:48:47;38.05;;;10.15;;
75320;SDS011;68337;52.196;5.660;2024-01-25T13:51:13;36.28;;;10.00;;
75320;SDS011;68337;52.196;5.660;2024-01-25T13:53:38;32.60;;;8.70;;
75320;SDS011;68337;52.196;5.660;2024-01-25T13:56:04;42.25;;;9.45;;
75320;SDS011;68337;52.196;5.660;2024-01-25T13:58:30;36.25;;;9.90;;
75320;SDS011;68337;52.196;5.660;2024-01-25T14:00:56;34.80;;;9.60;;
75320;SDS011;68337;52.196;5.660;2024-01-25T14:03:22;31.88;;;9.23;;
75320;SDS011;68337;52.196;5.660;2024-01-25T14:05:47;29.67;;;9.73;;
75320;SDS011;68337;52.196;5.660;2024-01-25T14:08:13;27.67;;;9.98;;
75320;SDS011;68337;52.196;5.660;2024-01-25T14:10:39;38.80;;;10.13;;
75320;SDS011;68337;52.196;5.660;2024-01-25T14:13:07;40.17;;;9.50;;
75320;SDS011;68337;52.196;5.660;2024-01-25T14:15:34;36.15;;;9.48;;
75320;SDS011;68337;52.196;5.660;2024-01-25T14:17:59;35.88;;;9.77;;
75320;SDS011;68337;52.196;5.660;2024-01-25T14:20:25;36.05;;;9.57;;
75320;SDS011;68337;52.196;5.660;2024-01-25T14:22:51;28.50;;;10.80;;
75320;SDS011;68337;52.196;5.660;2024-01-25T14:25:16;43.55;;;10.77;;
75320;SDS011;68337;52.196;5.660;2024-01-25T14:27:42;43.53;;;10.18;;
75320;SDS011;68337;52.196;5.660;2024-01-25T14:30:08;30.95;;;10.10;;
75320;SDS011;68337;52.196;5.660;2024-01-25T14:32:34;37.33;;;10.50;;